Historyczne dane pomiarowe

Dodano dane terminowe – wersja testowa.

Dane z okresu 1951-2019

Wersja bazy: 1.34 [2019-03-16, lista zmian], aktualizacja planowana na 2019-04-15

Dane meteo z obszaru Polski uzyskane na podstawie danych udostępnionych przez Instytut Meteorologii i Gospodarki Wodnej – Państwowy Instytut Badawczy.

 

Wybierz Datę:    

       

TemperaturaWilgotnośćWiatrCiśnienieOpadyŚniegCzas trwania zjawisk
 Stacja t tx tn tng RH VA  wxwx mslp ppp RRR   cm mm wxwxwxwxwxwxwx
1956-10-10 5.4 10.2 0.4- 79.5- 4.0 3.7---- 0.0------------
1956-10-09 6.2 8.8 1.6- 92.0- 5.3 5.0---- 0.7------------
1956-10-08 4.8 8.8 3.0- 89.8- 5.3 4.3---- 0.0------------
1956-10-07 7.0 8.2 4.3- 86.3- 8.0 13.0---- 2.2------------
1956-10-06 7.8 10.0 7.1- 99.0- 8.0 3.0---- 47.5------------
1956-10-05 10.4 15.5 9.1- 87.3- 6.3 2.3---- 1.4------------
1956-10-04 9.4 12.0 6.1- 96.8- 8.0 2.3---- 0.7------------
1956-10-03 14.1 18.8 11.4- 81.0- 5.3 6.3---- 0.0------------
1956-10-02 17.4 25.3 9.7- 73.5- 4.0 3.0---- 0.0------------
1956-10-01 15.0 22.6 5.6- 84.0- 1.3 4.3---- 0.0------------
1956-09-30 11.4 16.6 10.1- 92.3- 4.7 4.7---- 0.0------------
1956-09-29 16.2 20.3 12.1- 85.0- 8.0 5.7---- 0.4------------
1956-09-28 14.0 18.7 10.7- 86.5- 5.3 4.3---- 0.3------------
1956-09-27 15.4 24.0 6.7- 75.0- 1.7 2.0---- 0.0------------
1956-09-26 12.1 21.8 5.6- 84.0- 2.7 1.0---- 0.0------------
1956-09-25 9.4 18.0 1.4- 85.3- 0.0 2.0---- 0.0------------
1956-09-24 7.2 15.2 2.4- 74.8- 0.0 2.0---- 0.0------------
1956-09-23 10.0 16.5 6.1- 80.5- 2.7 2.3---- 0.0------------
1956-09-22 11.8 20.0 5.5- 81.8- 0.0 1.0---- 0.0------------
1956-09-21 11.1 19.6 5.7- 79.3- 0.0 0.7---- 0.0------------
1956-09-20 10.7 17.6 3.7- 78.8- 5.7 0.7---- 0.0------------
1956-09-19 9.1 17.5 3.7- 81.0- 1.3 0.7---- 0.0------------
1956-09-18 8.8 14.5 5.6- 82.3- 4.7 2.0---- 0.0------------
1956-09-17 9.8 14.9 8.0- 74.0- 3.3 6.3---- 0.0------------
1956-09-16 10.3 13.5 6.7- 83.0- 7.3 6.3---- 0.0------------
1956-09-15 10.5 14.6 7.2- 85.8- 6.3 5.7---- 0.0------------
1956-09-14 10.9 17.0 7.5- 82.3- 3.0 2.7---- 0.0------------
1956-09-13 9.6 15.0 7.6- 88.0- 3.7 3.0---- 1.2------------
1956-09-12 10.8 15.0 9.2- 94.3- 6.0 3.7---- 12.4------------
1956-09-11 13.5 15.0 12.8- 97.8- 8.0 1.3---- 4.3------------
1956-09-10 14.2 20.2 8.8- 87.5- 7.3 0.3---- 7.1------------
1956-09-09 14.3 19.5 12.3- 87.3- 5.3 1.3---- 0.4------------
1956-09-08 15.2 21.2 12.3- 83.8- 2.7 3.7---- 9.7------------
1956-09-07 16.8 21.6 10.5- 84.5- 5.3 2.3---- 0.0------------
1956-09-06 14.6 22.5 9.8- 80.8- 0.3 1.3---- 0.0------------
1956-09-05 15.7 20.5 12.6- 78.8- 4.0 4.3---- 0.0------------
1956-09-04 16.6 20.2 14.4- 94.3- 8.0 5.7---- 13.8------------
1956-09-03 18.7 27.5 11.2- 83.5- 0.3 2.0---- 0.0------------
1956-09-02 17.3 25.2 11.5- 80.8- 0.0 1.3---- 0.0------------
1956-09-01 14.8 22.2 8.2- 79.5- 0.3 1.0---- 0.0------------
1956-08-31 12.7 18.5 8.7- 87.3- 3.7 4.7---- 0.0------------
1956-08-30 13.8 18.3 11.4- 92.0- 5.3 5.7---- 0.7------------
1956-08-29 17.6 24.5 15.5- 88.3- 3.0 5.0---- 7.4------------
1956-08-28 19.6 25.0 17.1- 77.5- 5.3 7.0---- 6.1------------
1956-08-27 18.3 25.5 12.5- 79.5- 2.7 2.7---- 0.0------------
1956-08-26 16.9 22.5 11.2- 64.0- 1.7 5.7---- 0.0------------
1956-08-25 16.0 18.5 9.6- 75.8- 6.7 7.7---- 1.0------------
1956-08-24 12.4 15.3 11.4- 92.0- 5.3 5.7---- 0.6------------
1956-08-23 15.6 20.5 12.5- 90.3- 8.0 3.0---- 2.2------------
1956-08-22 16.0 20.9 10.7- 80.0- 8.0 2.0---- 1.4------------
1956-08-21 14.8 16.4 13.7- 97.8- 8.0 2.3---- 7.6------------
1956-08-20 17.4 24.0 13.5- 67.8- 0.3 4.7---- 0.7------------
1956-08-19 19.4 25.7 15.1- 76.8- 2.7 3.0---- 0.0------------
1956-08-18 18.3 24.0 13.4- 75.3- 3.7 3.3---- 0.0------------
1956-08-17 14.5 18.5 13.3- 92.3- 8.0 4.3---- 1.4------------
1956-08-16 14.4 17.9 10.1- 77.8- 4.0 6.3---- 0.1------------
1956-08-15 15.1 19.6 13.8- 69.3- 1.3 7.0---- 0.0------------
1956-08-14 17.8 24.8 9.7- 76.3- 7.3 4.3---- 0.0------------
1956-08-13 15.0 21.0 12.3- 80.3- 3.3 3.3---- 0.1------------
1956-08-12 12.6 15.9 12.1- 97.0- 8.0 3.0---- 4.4------------
192.0 ms

 

Źródłem pochodzenia danych jest Instytut Meteorologii i Gospodarki Wodnej – Państwowy Instytut Badawczy. Dane Instytutu Meteorologii i Gospodarki Wodnej – Państwowego Instytutu Badawczego zostały przetworzone.

Dane źródłowe można odnaleźć na stronie https://dane.imgw.pl